Terminal Aerodrome Forecast
Issued by NWS Wilmington, OH

Current Version | Previous Version | Graphics & Text | Print | Product List | Glossary On
Versions: 1 2 3 4 5 6 7 8 9 10 11 12 13 14 15 16
082
FTUS41 KILN 101022 AAA
TAFDAY
TAF AMD
KDAY 101022Z 1010/1106 25012G22KT 1SM -SHSN OVC015
     FM101500 28018G24KT 4SM -SHSN OVC025
     FM101800 28018G24KT P6SM OVC025
     FM102200 28012KT P6SM OVC035=

USA.gov is the U.S. government's official web portal to all federal, state and local government web resources and services.